KLM733 TNCM-TNCB
Flight info
| Callsign | KLM733 |
|---|---|
| Flight time | 1h 20m |
| Altitude | 38000 |
| Route | MODOR2 GOUDA DCT MLIZA L335 SCAPA SCAPA1N |
| Aircraft | MD11/H-SDE1E2E3FGHIJ2J3J4J5M1RWXY/LB1D1 |
Departure
| Time | 2026-05-05 18:58 |
|---|---|
| Airport | Princess Juliana International Airport (TNCM) |
Arrival
| Time | 2026-05-05 20:19 |
|---|---|
| Airport | Flamingo International Airport (TNCB) |
| Time | Latitude | Longitude | Altitude | Speed | Heading |
|---|---|---|---|---|---|
| 2026-05-05 18:38 | 18.04325 | -63.11363 | 28 ft | 0 kts | 351° |
| 2026-05-05 18:52 | 18.04319 | -63.11362 | 28 ft | 3 kts | 351° |
| 2026-05-05 18:52 | 18.04300 | -63.11359 | 27 ft | 3 kts | 351° |
| 2026-05-05 18:52 | 18.04282 | -63.11356 | 27 ft | 3 kts | 351° |
| 2026-05-05 18:53 | 18.04263 | -63.11348 | 28 ft | 3 kts | 302° |
| 2026-05-05 18:53 | 18.04256 | -63.11331 | 25 ft | 0 kts | 265° |
| 2026-05-05 18:55 | 18.04256 | -63.11338 | 28 ft | 4 kts | 265° |
| 2026-05-05 18:55 | 18.04245 | -63.11405 | 28 ft | 14 kts | 257° |
| 2026-05-05 18:55 | 18.04186 | -63.11530 | 28 ft | 24 kts | 233° |
| 2026-05-05 18:55 | 18.04084 | -63.11666 | 29 ft | 23 kts | 239° |
| 2026-05-05 18:56 | 18.04050 | -63.11773 | 28 ft | 13 kts | 254° |
| 2026-05-05 18:56 | 18.04032 | -63.11863 | 29 ft | 15 kts | 259° |
| 2026-05-05 18:56 | 18.03992 | -63.11959 | 29 ft | 6 kts | 232° |
| 2026-05-05 18:56 | 18.03983 | -63.11965 | 29 ft | 0 kts | 201° |
| 2026-05-05 18:57 | 18.03977 | -63.11964 | 29 ft | 3 kts | 186° |
| 2026-05-05 18:57 | 18.03958 | -63.11962 | 29 ft | 2 kts | 165° |
| 2026-05-05 18:57 | 18.03951 | -63.11952 | 29 ft | 1 kts | 119° |
| 2026-05-05 18:57 | 18.03951 | -63.11939 | 29 ft | 6 kts | 92° |
| 2026-05-05 18:58 | 18.03988 | -63.11632 | 31 ft | 94 kts | 82° |
| 2026-05-05 18:58 | 18.04128 | -63.10634 | 68 ft | 176 kts | 84° |
| 2026-05-05 18:58 | 18.04347 | -63.09370 | 1264 ft | 170 kts | 83° |
| 2026-05-05 18:58 | 18.04249 | -63.08230 | 2728 ft | 155 kts | 118° |
| 2026-05-05 18:59 | 18.03466 | -63.07463 | 3980 ft | 169 kts | 150° |
| 2026-05-05 18:59 | 18.02128 | -63.07195 | 4323 ft | 227 kts | 174° |
| 2026-05-05 18:59 | 18.00397 | -63.07255 | 4918 ft | 259 kts | 180° |
| 2026-05-05 18:59 | 17.98584 | -63.07385 | 6199 ft | 264 kts | 181° |
| 2026-05-05 19:00 | 17.96729 | -63.07522 | 7391 ft | 270 kts | 182° |
| 2026-05-05 19:00 | 17.94829 | -63.07661 | 8523 ft | 276 kts | 183° |
| 2026-05-05 19:00 | 17.92887 | -63.07802 | 9612 ft | 284 kts | 183° |
| 2026-05-05 19:00 | 17.90878 | -63.07946 | 10467 ft | 302 kts | 184° |
| 2026-05-05 19:01 | 17.88641 | -63.08105 | 10578 ft | 343 kts | 184° |
| 2026-05-05 19:01 | 17.86167 | -63.08280 | 11158 ft | 363 kts | 184° |
| 2026-05-05 19:01 | 17.83612 | -63.08461 | 12182 ft | 371 kts | 184° |
| 2026-05-05 19:01 | 17.81043 | -63.08643 | 13166 ft | 378 kts | 184° |
| 2026-05-05 19:02 | 17.78401 | -63.08829 | 14129 ft | 384 kts | 184° |
| 2026-05-05 19:02 | 17.75712 | -63.09018 | 14940 ft | 392 kts | 184° |
| 2026-05-05 19:02 | 17.72971 | -63.09211 | 15771 ft | 398 kts | 184° |
| 2026-05-05 19:02 | 17.70182 | -63.09420 | 16446 ft | 406 kts | 188° |
| 2026-05-05 19:03 | 17.67452 | -63.10172 | 17199 ft | 408 kts | 205° |
| 2026-05-05 19:03 | 17.65031 | -63.11723 | 17986 ft | 411 kts | 222° |
| 2026-05-05 19:03 | 17.63118 | -63.13945 | 18691 ft | 412 kts | 238° |
| 2026-05-05 19:03 | 17.61883 | -63.16651 | 19361 ft | 413 kts | 254° |
| 2026-05-05 19:04 | 17.61420 | -63.19612 | 20068 ft | 413 kts | 270° |
| 2026-05-05 19:04 | 17.61751 | -63.22611 | 20707 ft | 417 kts | 284° |
| 2026-05-05 19:04 | 17.62686 | -63.25506 | 21335 ft | 422 kts | 291° |
| 2026-05-05 19:04 | 17.63840 | -63.28364 | 21937 ft | 429 kts | 293° |
| 2026-05-05 19:05 | 17.65078 | -63.31246 | 22584 ft | 435 kts | 293° |
| 2026-05-05 19:05 | 17.66345 | -63.34144 | 23239 ft | 441 kts | 293° |
| 2026-05-05 19:05 | 17.67621 | -63.37049 | 23836 ft | 446 kts | 293° |
| 2026-05-05 19:05 | 17.68926 | -63.40017 | 24446 ft | 450 kts | 293° |
| 2026-05-05 19:06 | 17.70245 | -63.43015 | 25082 ft | 454 kts | 293° |
| 2026-05-05 19:06 | 17.71575 | -63.46040 | 25774 ft | 457 kts | 293° |
| 2026-05-05 19:06 | 17.72881 | -63.49096 | 26400 ft | 461 kts | 291° |
| 2026-05-05 19:06 | 17.73964 | -63.52274 | 27033 ft | 463 kts | 285° |
| 2026-05-05 19:07 | 17.74731 | -63.55567 | 27638 ft | 467 kts | 279° |
| 2026-05-05 19:07 | 17.75092 | -63.57796 | 28009 ft | 470 kts | 277° |
| 2026-05-05 19:07 | 17.75591 | -63.62381 | 28875 ft | 474 kts | 274° |
| 2026-05-05 19:07 | 17.75862 | -63.65839 | 29464 ft | 477 kts | 273° |
| 2026-05-05 19:08 | 17.76106 | -63.69332 | 30009 ft | 483 kts | 273° |
| 2026-05-05 19:08 | 17.76350 | -63.72862 | 30473 ft | 487 kts | 273° |
| 2026-05-05 19:08 | 17.76603 | -63.76403 | 30982 ft | 488 kts | 273° |
| 2026-05-05 19:08 | 17.76866 | -63.79945 | 31659 ft | 484 kts | 274° |
| 2026-05-05 19:09 | 17.77132 | -63.83452 | 32365 ft | 480 kts | 274° |
| 2026-05-05 19:09 | 17.77396 | -63.86898 | 32923 ft | 479 kts | 274° |
| 2026-05-05 19:09 | 17.77663 | -63.90372 | 33492 ft | 478 kts | 274° |
| 2026-05-05 19:09 | 17.77929 | -63.93837 | 34088 ft | 475 kts | 274° |
| 2026-05-05 19:10 | 17.78189 | -63.97286 | 34590 ft | 473 kts | 274° |
| 2026-05-05 19:10 | 17.78444 | -64.00718 | 35087 ft | 470 kts | 274° |
| 2026-05-05 19:10 | 17.78698 | -64.04135 | 35582 ft | 468 kts | 274° |
| 2026-05-05 19:10 | 17.78951 | -64.07530 | 36112 ft | 464 kts | 274° |
| 2026-05-05 19:11 | 17.79203 | -64.10895 | 36606 ft | 461 kts | 274° |
| 2026-05-05 19:11 | 17.79370 | -64.13115 | 36862 ft | 460 kts | 274° |
| 2026-05-05 19:11 | 17.79605 | -64.16458 | 37240 ft | 458 kts | 273° |
| 2026-05-05 19:11 | 17.79624 | -64.19788 | 37621 ft | 455 kts | 266° |
| 2026-05-05 19:12 | 17.79181 | -64.23067 | 37965 ft | 455 kts | 257° |
| 2026-05-05 19:12 | 17.78206 | -64.26224 | 38062 ft | 455 kts | 248° |
| 2026-05-05 19:12 | 17.75062 | -64.31994 | 38079 ft | 457 kts | 238° |
| 2026-05-05 19:13 | 17.71556 | -64.37554 | 38092 ft | 456 kts | 239° |
| 2026-05-05 19:13 | 17.68153 | -64.43162 | 38088 ft | 455 kts | 240° |
| 2026-05-05 19:14 | 17.64846 | -64.48779 | 38086 ft | 456 kts | 240° |
| 2026-05-05 19:14 | 17.61536 | -64.54444 | 38083 ft | 456 kts | 240° |
| 2026-05-05 19:15 | 17.58216 | -64.60120 | 38085 ft | 456 kts | 240° |
| 2026-05-05 19:15 | 17.54894 | -64.65789 | 38086 ft | 456 kts | 240° |
| 2026-05-05 19:16 | 17.51572 | -64.71450 | 38086 ft | 456 kts | 240° |
| 2026-05-05 19:16 | 17.48241 | -64.77124 | 38082 ft | 456 kts | 240° |
| 2026-05-05 19:17 | 17.44939 | -64.82743 | 38073 ft | 456 kts | 240° |
| 2026-05-05 19:17 | 17.41608 | -64.88405 | 38068 ft | 457 kts | 240° |
| 2026-05-05 19:18 | 17.38270 | -64.94075 | 38079 ft | 458 kts | 240° |
| 2026-05-05 19:18 | 17.34928 | -64.99748 | 38071 ft | 457 kts | 240° |
| 2026-05-05 19:19 | 17.31583 | -65.05404 | 38067 ft | 456 kts | 240° |
| 2026-05-05 19:19 | 17.28241 | -65.11050 | 38062 ft | 456 kts | 240° |
| 2026-05-05 19:20 | 17.24901 | -65.16699 | 38070 ft | 456 kts | 240° |
| 2026-05-05 19:20 | 17.21563 | -65.22346 | 38065 ft | 456 kts | 240° |
| 2026-05-05 19:21 | 17.18243 | -65.27958 | 38060 ft | 456 kts | 240° |
| 2026-05-05 19:21 | 17.14899 | -65.33604 | 38062 ft | 456 kts | 240° |
| 2026-05-05 19:22 | 17.11559 | -65.39239 | 38063 ft | 456 kts | 240° |
| 2026-05-05 19:22 | 17.08214 | -65.44879 | 38061 ft | 456 kts | 240° |
| 2026-05-05 19:23 | 17.04867 | -65.50517 | 38066 ft | 456 kts | 240° |
| 2026-05-05 19:23 | 17.01525 | -65.56143 | 38065 ft | 456 kts | 240° |
| 2026-05-05 19:24 | 16.98177 | -65.61773 | 38063 ft | 456 kts | 240° |
| 2026-05-05 19:24 | 16.94855 | -65.67355 | 38058 ft | 455 kts | 240° |
| 2026-05-05 19:25 | 16.91515 | -65.72963 | 38063 ft | 455 kts | 240° |
| 2026-05-05 19:25 | 16.88167 | -65.78568 | 38055 ft | 456 kts | 239° |
| 2026-05-05 19:26 | 16.84807 | -65.84182 | 38059 ft | 456 kts | 239° |
| 2026-05-05 19:26 | 16.81446 | -65.89805 | 38059 ft | 455 kts | 239° |
| 2026-05-05 19:27 | 16.78096 | -65.95409 | 38052 ft | 454 kts | 240° |
| 2026-05-05 19:27 | 16.74754 | -66.00998 | 38054 ft | 453 kts | 240° |
| 2026-05-05 19:28 | 16.71439 | -66.06537 | 38060 ft | 453 kts | 240° |
| 2026-05-05 19:28 | 16.68099 | -66.12113 | 38057 ft | 453 kts | 240° |
| 2026-05-05 19:29 | 16.64761 | -66.17682 | 38057 ft | 453 kts | 240° |
| 2026-05-05 19:29 | 16.61419 | -66.23252 | 38056 ft | 453 kts | 239° |
| 2026-05-05 19:30 | 16.58082 | -66.28810 | 38051 ft | 452 kts | 239° |
| 2026-05-05 19:30 | 16.54747 | -66.34360 | 38054 ft | 452 kts | 239° |
| 2026-05-05 19:31 | 16.51435 | -66.39867 | 38055 ft | 451 kts | 239° |
| 2026-05-05 19:31 | 16.48075 | -66.45450 | 38055 ft | 451 kts | 239° |
| 2026-05-05 19:32 | 16.44762 | -66.50946 | 38050 ft | 451 kts | 239° |
| 2026-05-05 19:32 | 16.41411 | -66.56484 | 38049 ft | 451 kts | 239° |
| 2026-05-05 19:33 | 16.38069 | -66.62015 | 38051 ft | 451 kts | 239° |
| 2026-05-05 19:33 | 16.34728 | -66.67549 | 38042 ft | 452 kts | 239° |
| 2026-05-05 19:34 | 16.31379 | -66.73093 | 38050 ft | 452 kts | 239° |
| 2026-05-05 19:35 | 16.26355 | -66.81399 | 38041 ft | 452 kts | 239° |
| 2026-05-05 19:35 | 16.23004 | -66.86935 | 38040 ft | 452 kts | 239° |
| 2026-05-05 19:36 | 16.19650 | -66.92469 | 38044 ft | 451 kts | 239° |
| 2026-05-05 19:36 | 16.16303 | -66.97989 | 38042 ft | 451 kts | 239° |
| 2026-05-05 19:37 | 16.12976 | -67.03474 | 38039 ft | 451 kts | 239° |
| 2026-05-05 19:37 | 16.09626 | -67.08990 | 38030 ft | 451 kts | 239° |
| 2026-05-05 19:38 | 16.06264 | -67.14522 | 38035 ft | 453 kts | 239° |
| 2026-05-05 19:38 | 16.02898 | -67.20057 | 38041 ft | 453 kts | 239° |
| 2026-05-05 19:39 | 15.99522 | -67.25594 | 38038 ft | 452 kts | 239° |
| 2026-05-05 19:39 | 15.96150 | -67.31113 | 38038 ft | 452 kts | 239° |
| 2026-05-05 19:40 | 15.92781 | -67.36633 | 38039 ft | 452 kts | 239° |
| 2026-05-05 19:40 | 15.89397 | -67.42141 | 38034 ft | 452 kts | 238° |
| 2026-05-05 19:41 | 15.85327 | -67.47134 | 38032 ft | 456 kts | 223° |
| 2026-05-05 19:41 | 15.79910 | -67.50628 | 38025 ft | 464 kts | 205° |
| 2026-05-05 19:42 | 15.73775 | -67.52703 | 38032 ft | 469 kts | 199° |
| 2026-05-05 19:42 | 15.67485 | -67.54524 | 38028 ft | 469 kts | 199° |
| 2026-05-05 19:43 | 15.61229 | -67.56428 | 38029 ft | 468 kts | 200° |
| 2026-05-05 19:43 | 15.55004 | -67.58393 | 38023 ft | 468 kts | 200° |
| 2026-05-05 19:44 | 15.48767 | -67.60379 | 38015 ft | 468 kts | 200° |
| 2026-05-05 19:44 | 15.42563 | -67.62351 | 38023 ft | 469 kts | 200° |
| 2026-05-05 19:45 | 15.36334 | -67.64327 | 38024 ft | 469 kts | 200° |
| 2026-05-05 19:45 | 15.30092 | -67.66305 | 38021 ft | 469 kts | 200° |
| 2026-05-05 19:46 | 15.23840 | -67.68286 | 38019 ft | 469 kts | 200° |
| 2026-05-05 19:46 | 15.17593 | -67.70263 | 38009 ft | 469 kts | 200° |
| 2026-05-05 19:47 | 15.11336 | -67.72243 | 38017 ft | 471 kts | 200° |
| 2026-05-05 19:47 | 15.05064 | -67.74226 | 38018 ft | 471 kts | 200° |
| 2026-05-05 19:48 | 14.98791 | -67.76208 | 38017 ft | 471 kts | 200° |
| 2026-05-05 19:48 | 14.92556 | -67.78173 | 38015 ft | 471 kts | 200° |
| 2026-05-05 19:49 | 14.86271 | -67.80154 | 38013 ft | 471 kts | 199° |
| 2026-05-05 19:49 | 14.79991 | -67.82135 | 38012 ft | 472 kts | 199° |
| 2026-05-05 19:50 | 14.73704 | -67.84116 | 38011 ft | 472 kts | 200° |
| 2026-05-05 19:50 | 14.67401 | -67.86102 | 38012 ft | 473 kts | 200° |
| 2026-05-05 19:51 | 14.61112 | -67.88082 | 38005 ft | 473 kts | 199° |
| 2026-05-05 19:51 | 14.54821 | -67.90061 | 38007 ft | 473 kts | 199° |
| 2026-05-05 19:52 | 14.48566 | -67.92028 | 38007 ft | 473 kts | 199° |
| 2026-05-05 19:52 | 14.42262 | -67.94009 | 38007 ft | 473 kts | 199° |
| 2026-05-05 19:53 | 14.35962 | -67.95988 | 38007 ft | 473 kts | 199° |
| 2026-05-05 19:53 | 14.29657 | -67.97967 | 38007 ft | 473 kts | 199° |
| 2026-05-05 19:54 | 14.23355 | -67.99944 | 38005 ft | 473 kts | 200° |
| 2026-05-05 19:54 | 14.17058 | -68.01917 | 37774 ft | 473 kts | 199° |
| 2026-05-05 19:54 | 14.13906 | -68.02903 | 37516 ft | 473 kts | 199° |
| 2026-05-05 19:55 | 14.10757 | -68.03889 | 37015 ft | 475 kts | 199° |
| 2026-05-05 19:55 | 14.07624 | -68.04869 | 36448 ft | 476 kts | 199° |
| 2026-05-05 19:55 | 14.04449 | -68.05863 | 35896 ft | 478 kts | 198° |
| 2026-05-05 19:55 | 14.01259 | -68.06862 | 35343 ft | 480 kts | 199° |
| 2026-05-05 19:56 | 13.98052 | -68.07866 | 34786 ft | 483 kts | 199° |
| 2026-05-05 19:56 | 13.94834 | -68.08873 | 34237 ft | 485 kts | 199° |
| 2026-05-05 19:56 | 13.91584 | -68.09890 | 33635 ft | 488 kts | 198° |
| 2026-05-05 19:56 | 13.88332 | -68.10907 | 33016 ft | 490 kts | 198° |
| 2026-05-05 19:57 | 13.85049 | -68.11932 | 32404 ft | 495 kts | 200° |
| 2026-05-05 19:57 | 13.82864 | -68.12615 | 31998 ft | 497 kts | 199° |
| 2026-05-05 19:57 | 13.78416 | -68.14004 | 31190 ft | 500 kts | 199° |
| 2026-05-05 19:57 | 13.75075 | -68.15047 | 30563 ft | 504 kts | 199° |
| 2026-05-05 19:58 | 13.71715 | -68.16095 | 29820 ft | 504 kts | 198° |
| 2026-05-05 19:58 | 13.68363 | -68.17139 | 29039 ft | 501 kts | 199° |
| 2026-05-05 19:58 | 13.65041 | -68.18174 | 28316 ft | 495 kts | 198° |
| 2026-05-05 19:58 | 13.61760 | -68.19196 | 27617 ft | 492 kts | 198° |
| 2026-05-05 19:59 | 13.59597 | -68.19871 | 27170 ft | 487 kts | 198° |
| 2026-05-05 19:59 | 13.56371 | -68.20877 | 26487 ft | 482 kts | 199° |
| 2026-05-05 19:59 | 13.53168 | -68.21875 | 25826 ft | 478 kts | 199° |
| 2026-05-05 19:59 | 13.50006 | -68.22860 | 25163 ft | 473 kts | 199° |
| 2026-05-05 20:00 | 13.46866 | -68.23838 | 24515 ft | 470 kts | 199° |
| 2026-05-05 20:00 | 13.43756 | -68.24806 | 23866 ft | 465 kts | 199° |
| 2026-05-05 20:00 | 13.40664 | -68.25769 | 23162 ft | 461 kts | 199° |
| 2026-05-05 20:00 | 13.37606 | -68.26721 | 22450 ft | 457 kts | 198° |
| 2026-05-05 20:01 | 13.34580 | -68.27662 | 21783 ft | 451 kts | 198° |
| 2026-05-05 20:01 | 13.31592 | -68.28591 | 21150 ft | 447 kts | 198° |
| 2026-05-05 20:01 | 13.28663 | -68.29503 | 20536 ft | 441 kts | 197° |
| 2026-05-05 20:01 | 13.25740 | -68.30412 | 19914 ft | 437 kts | 196° |
| 2026-05-05 20:02 | 13.22840 | -68.31314 | 19315 ft | 432 kts | 195° |
| 2026-05-05 20:02 | 13.19980 | -68.32203 | 18720 ft | 427 kts | 195° |
| 2026-05-05 20:02 | 13.17153 | -68.33082 | 18115 ft | 423 kts | 195° |
| 2026-05-05 20:02 | 13.14356 | -68.33951 | 17469 ft | 417 kts | 195° |
| 2026-05-05 20:03 | 13.11596 | -68.34809 | 16859 ft | 413 kts | 193° |
| 2026-05-05 20:03 | 13.08850 | -68.35660 | 16270 ft | 408 kts | 195° |
| 2026-05-05 20:03 | 13.06144 | -68.36500 | 15701 ft | 405 kts | 195° |
| 2026-05-05 20:03 | 13.03469 | -68.37330 | 15128 ft | 400 kts | 193° |
| 2026-05-05 20:04 | 13.00816 | -68.38153 | 14557 ft | 395 kts | 194° |
| 2026-05-05 20:04 | 12.98191 | -68.38967 | 13998 ft | 393 kts | 195° |
| 2026-05-05 20:04 | 12.95595 | -68.39773 | 13402 ft | 388 kts | 193° |
| 2026-05-05 20:04 | 12.93021 | -68.40571 | 12815 ft | 384 kts | 193° |
| 2026-05-05 20:05 | 12.90470 | -68.41361 | 12251 ft | 382 kts | 193° |
| 2026-05-05 20:05 | 12.87975 | -68.42134 | 11723 ft | 378 kts | 193° |
| 2026-05-05 20:05 | 12.85473 | -68.42909 | 11200 ft | 374 kts | 193° |
| 2026-05-05 20:05 | 12.82986 | -68.43679 | 10855 ft | 371 kts | 193° |
| 2026-05-05 20:06 | 12.80546 | -68.44436 | 10701 ft | 356 kts | 193° |
| 2026-05-05 20:06 | 12.78244 | -68.45155 | 10566 ft | 336 kts | 193° |
| 2026-05-05 20:06 | 12.76066 | -68.45833 | 10462 ft | 319 kts | 193° |
| 2026-05-05 20:06 | 12.74000 | -68.46475 | 10332 ft | 303 kts | 193° |
| 2026-05-05 20:07 | 12.72020 | -68.47088 | 10209 ft | 293 kts | 192° |
| 2026-05-05 20:07 | 12.70080 | -68.47687 | 10086 ft | 290 kts | 192° |
| 2026-05-05 20:07 | 12.68125 | -68.48132 | 9960 ft | 285 kts | 181° |
| 2026-05-05 20:07 | 12.66158 | -68.48204 | 9918 ft | 283 kts | 175° |
| 2026-05-05 20:08 | 12.64197 | -68.48170 | 9867 ft | 282 kts | 174° |
| 2026-05-05 20:08 | 12.62234 | -68.48115 | 9803 ft | 281 kts | 174° |
| 2026-05-05 20:08 | 12.60304 | -68.48058 | 9746 ft | 281 kts | 174° |
| 2026-05-05 20:08 | 12.58352 | -68.48002 | 9683 ft | 280 kts | 174° |
| 2026-05-05 20:09 | 12.56402 | -68.47948 | 9614 ft | 280 kts | 174° |
| 2026-05-05 20:09 | 12.54456 | -68.47895 | 9551 ft | 279 kts | 174° |
| 2026-05-05 20:09 | 12.52516 | -68.47843 | 9481 ft | 279 kts | 174° |
| 2026-05-05 20:09 | 12.50569 | -68.47792 | 9422 ft | 279 kts | 174° |
| 2026-05-05 20:10 | 12.48633 | -68.47743 | 9368 ft | 278 kts | 174° |
| 2026-05-05 20:10 | 12.46696 | -68.47693 | 9202 ft | 279 kts | 174° |
| 2026-05-05 20:10 | 12.44760 | -68.47642 | 8816 ft | 277 kts | 174° |
| 2026-05-05 20:10 | 12.42836 | -68.47593 | 8391 ft | 275 kts | 175° |
| 2026-05-05 20:11 | 12.40921 | -68.47544 | 7954 ft | 273 kts | 174° |
| 2026-05-05 20:11 | 12.39031 | -68.47496 | 7507 ft | 271 kts | 174° |
| 2026-05-05 20:11 | 12.37156 | -68.47448 | 7104 ft | 269 kts | 175° |
| 2026-05-05 20:11 | 12.35291 | -68.47401 | 6707 ft | 266 kts | 174° |
| 2026-05-05 20:12 | 12.33458 | -68.47354 | 6315 ft | 264 kts | 175° |
| 2026-05-05 20:12 | 12.31650 | -68.47307 | 5889 ft | 263 kts | 175° |
| 2026-05-05 20:12 | 12.29868 | -68.47262 | 5504 ft | 260 kts | 176° |
| 2026-05-05 20:12 | 12.28076 | -68.47217 | 5120 ft | 261 kts | 176° |
| 2026-05-05 20:13 | 12.26268 | -68.47170 | 4761 ft | 258 kts | 174° |
| 2026-05-05 20:13 | 12.24485 | -68.47125 | 4410 ft | 256 kts | 176° |
| 2026-05-05 20:13 | 12.22703 | -68.47080 | 4050 ft | 255 kts | 175° |
| 2026-05-05 20:13 | 12.20937 | -68.47036 | 3696 ft | 253 kts | 173° |
| 2026-05-05 20:14 | 12.19191 | -68.46991 | 3353 ft | 249 kts | 175° |
| 2026-05-05 20:14 | 12.17473 | -68.46937 | 3001 ft | 244 kts | 172° |
| 2026-05-05 20:14 | 12.15849 | -68.46583 | 2706 ft | 233 kts | 153° |
| 2026-05-05 20:14 | 12.14574 | -68.45668 | 2597 ft | 219 kts | 130° |
| 2026-05-05 20:15 | 12.13847 | -68.44362 | 2483 ft | 207 kts | 107° |
| 2026-05-05 20:15 | 12.13653 | -68.42936 | 2347 ft | 201 kts | 95° |
| 2026-05-05 20:15 | 12.13585 | -68.41541 | 2174 ft | 191 kts | 92° |
| 2026-05-05 20:15 | 12.13535 | -68.40231 | 1969 ft | 180 kts | 93° |
| 2026-05-05 20:16 | 12.13493 | -68.39007 | 1836 ft | 165 kts | 94° |
| 2026-05-05 20:16 | 12.13453 | -68.37867 | 1525 ft | 158 kts | 92° |
| 2026-05-05 20:16 | 12.13415 | -68.36760 | 1465 ft | 157 kts | 93° |
| 2026-05-05 20:16 | 12.13378 | -68.35674 | 1448 ft | 147 kts | 91° |
| 2026-05-05 20:17 | 12.13344 | -68.34712 | 1264 ft | 132 kts | 90° |
| 2026-05-05 20:17 | 12.13308 | -68.33760 | 761 ft | 130 kts | 93° |
| 2026-05-05 20:17 | 12.13284 | -68.32860 | 619 ft | 127 kts | 96° |
| 2026-05-05 20:17 | 12.13254 | -68.31958 | 658 ft | 126 kts | 95° |
| 2026-05-05 20:18 | 12.13208 | -68.31056 | 622 ft | 127 kts | 96° |
| 2026-05-05 20:18 | 12.13182 | -68.30164 | 451 ft | 124 kts | 94° |
| 2026-05-05 20:18 | 12.13133 | -68.29274 | 282 ft | 126 kts | 93° |
| 2026-05-05 20:18 | 12.13128 | -68.28379 | 122 ft | 128 kts | 91° |
| 2026-05-05 20:19 | 12.13107 | -68.27520 | 30 ft | 100 kts | 92° |
| 2026-05-05 20:19 | 12.13090 | -68.27005 | 28 ft | 45 kts | 92° |
| 2026-05-05 20:19 | 12.13081 | -68.26746 | 28 ft | 32 kts | 92° |
| 2026-05-05 20:19 | 12.13074 | -68.26543 | 29 ft | 25 kts | 92° |
| 2026-05-05 20:20 | 12.13068 | -68.26367 | 29 ft | 29 kts | 92° |
| 2026-05-05 20:20 | 12.13063 | -68.26109 | 29 ft | 35 kts | 91° |
| 2026-05-05 20:20 | 12.13107 | -68.25988 | 29 ft | 6 kts | 64° |
| 2026-05-05 20:20 | 12.13104 | -68.25973 | 29 ft | 1 kts | 117° |
| 2026-05-05 20:21 | 12.13094 | -68.25972 | 29 ft | 1 kts | 171° |
| 2026-05-05 20:21 | 12.13081 | -68.25984 | 29 ft | 6 kts | 224° |
| 2026-05-05 20:21 | 12.13066 | -68.26044 | 29 ft | 15 kts | 271° |
| 2026-05-05 20:21 | 12.13072 | -68.26198 | 27 ft | 29 kts | 272° |
| 2026-05-05 20:22 | 12.13078 | -68.26430 | 28 ft | 33 kts | 271° |
| 2026-05-05 20:22 | 12.13084 | -68.26655 | 29 ft | 31 kts | 271° |
| 2026-05-05 20:22 | 12.13093 | -68.26871 | 28 ft | 30 kts | 273° |
| 2026-05-05 20:22 | 12.13103 | -68.27075 | 29 ft | 28 kts | 273° |
| 2026-05-05 20:23 | 12.13108 | -68.27265 | 29 ft | 26 kts | 271° |
| 2026-05-05 20:23 | 12.13112 | -68.27437 | 29 ft | 18 kts | 276° |
| 2026-05-05 20:23 | 12.13168 | -68.27503 | 30 ft | 9 kts | 352° |
| 2026-05-05 20:23 | 12.13229 | -68.27502 | 29 ft | 8 kts | 1° |
| 2026-05-05 20:24 | 12.13315 | -68.27500 | 29 ft | 10 kts | 1° |
| 2026-05-05 20:24 | 12.13320 | -68.27500 | 29 ft | 0 kts | 1° |